Terminal Aerodrome Forecast
Issued by NWS

Home | Current Version | Previous Version | Graphics & Text | Print | Product List | Glossary On
Versions: 1 2 3 4 5 6 7 8 9 10 11 12 13 14 15 16 17 18 19
000
FTUS43 KTOP 021232 AAA
TAFFOE
TAF AMD
KFOE 021232Z 0213/0312 19011KT 6SM -RA BR VCTS BKN090CB
     FM021500 19013G22KT P6SM SCT100
     FM030000 17007KT P6SM FEW120=

USA.gov is the U.S. government's official web portal to all federal, state and local government web resources and services.